Date,TemperatureHighF,TemperatureAvgF,TemperatureLowF,DewpointHighF,DewpointAvgF,DewpointLowF,HumidityHigh,HumidityAvg,HumidityLow,PressureMaxIn,PressureMinIn,WindSpeedMaxMPH,WindSpeedAvgMPH,GustSpeedMaxMPH,PrecipitationSumIn
2013-4-1,38.1,29.8,22.5,11.7,5.7,-0.2,51,37,21,22.07,21.83,27,9,27,0.00
2013-4-2,43.3,31.2,21.9,10.4,6.3,-0.8,53,36,20,21.84,21.69,21,7,21,0.00
2013-4-3,50.4,35.3,18.3,14.7,9.3,4.3,68,37,19,21.78,21.55,16,4,16,0.00
2013-4-4,58.5,44.1,33.3,33.6,21.4,13.1,55,41,28,22.04,21.78,21,7,21,0.00
2013-4-5,52.7,39.0,28.8,28.6,18.8,1.8,89,47,22,21.93,21.75,18,5,18,0.00
2013-4-6,58.1,43.2,30.0,48.6,33.9,24.3,91,72,43,22.48,21.86,26,8,26,0.04
2013-4-7,57.7,42.3,36.0,38.5,31.6,28.8,84,67,39,22.41,22.03,100,6,100,0.04
2013-4-8,50.5,39.4,35.4,41.2,34.2,28.2,94,82,69,22.29,21.97,12,5,12,0.15
2013-4-9,39.4,37.1,32.5,37.2,33.7,23.5,95,88,60,22.07,21.89,19,7,19,0.58
2013-4-10,34.5,32.9,31.1,30.9,29.2,24.8,91,86,69,22.09,21.84,17,2,17,1.03
2013-4-11,36.5,34.0,32.4,33.1,29.8,24.8,90,85,69,22.37,22.05,22,8,22,0.27
2013-4-12,39.0,33.8,31.8,34.7,30.1,27.5,92,86,73,22.44,22.22,14,3,14,0.11
2013-4-13,38.7,33.9,29.8,28.6,24.1,20.1,86,68,52,22.24,22.00,21,7,21,0.01
2013-4-14,40.5,33.9,26.8,36.0,28.7,19.9,87,81,71,22.40,21.99,18,4,18,0.20
2013-4-15,59.2,46.2,38.1,46.4,33.3,21.6,97,65,29,22.39,22.03,30,8,30,0.22
2013-4-16,55.4,41.3,32.0,28.9,25.7,22.6,73,56,29,22.04,21.69,19,6,19,0.00
2013-4-17,42.3,37.9,32.9,38.8,31.8,24.6,94,79,62,22.11,21.66,18,5,18,0.27
2013-4-18,46.6,40.6,38.1,45.9,39.0,34.3,98,94,80,22.69,22.11,27,7,27,0.56
2013-4-19,39.7,34.1,28.8,34.7,24.1,14.2,88,68,44,22.69,22.08,30,13,30,0.02
2013-4-20,51.1,35.2,24.1,16.3,10.5,0.3,66,39,19,22.08,21.63,22,6,22,0.00
2013-4-21,51.8,39.2,29.5,36.5,26.5,14.2,91,62,39,21.79,21.53,27,9,27,0.01
2013-4-22,66.6,53.4,42.3,41.5,36.4,33.1,84,55,32,22.02,21.78,23,7,23,0.08
2013-4-23,56.1,42.3,34.7,45.5,32.0,23.0,90,67,54,22.12,21.97,21,9,21,0.01
2013-4-24,57.4,42.9,28.9,33.6,21.1,12.2,77,46,20,22.04,21.96,31,7,31,0.00
2013-4-25,55.6,43.2,32.7,35.4,28.4,20.5,87,59,29,22.04,21.74,20,7,20,0.00
2013-4-26,73.2,55.3,32.2,46.6,34.9,23.9,75,48,29,21.91,21.75,30,10,30,0.00
2013-4-27,70.0,59.3,46.9,49.6,46.5,42.6,92,65,44,21.99,21.80,23,6,23,0.00
2013-4-28,80.4,59.6,38.7,49.5,41.7,37.4,99,59,24,22.22,21.98,14,3,14,0.00
2013-4-29,72.9,60.7,52.9,59.5,52.3,45.3,99,75,48,22.29,22.14,24,5,24,0.12
2013-4-30,88.2,72.6,59.5,62.1,56.1,48.0,97,61,26,22.37,22.08,36,10,36,0.20